Time;durP1;ratioP1;P1;durP2;ratioP2;P2;SDS_P1;SDS_P2;PMS_P1;PMS_P2;Temp;Humidity;BMP_temperature;BMP_pressure;BME280_temperature;BME280_humidity;BME280_pressure;Samples;Min_cycle;Max_cycle;Signal;HPM_P1;HPM_P2
2022/10/16 00:05:02;;;;;;;12.10;8.00;;;;;;;13.09;76.75;99855.31;215940;1274;142159;-71
2022/10/16 00:10:07;;;;;;;12.60;8.20;;;;;;;12.98;76.84;99859.96;215942;1274;140162;-71
2022/10/16 00:15:13;;;;;;;14.00;9.60;;;;;;;12.89;76.90;99858.82;215170;1274;140961;-71
2022/10/16 00:20:17;;;;;;;9.70;8.10;;;;;;;12.87;77.11;99854.45;215807;1274;140878;-71
2022/10/16 00:25:22;;;;;;;9.80;7.20;;;;;;;12.77;76.91;99852.27;215730;1274;139940;-70
2022/10/16 00:30:27;;;;;;;9.20;7.80;;;;;;;12.66;77.05;99847.27;216100;1274;141313;-71
2022/10/16 00:35:32;;;;;;;11.20;7.70;;;;;;;12.60;77.43;99847.71;215483;1274;141086;-70
2022/10/16 00:40:36;;;;;;;11.80;8.50;;;;;;;12.56;77.47;99854.23;215341;1274;142499;-71
2022/10/16 00:45:41;;;;;;;11.40;7.20;;;;;;;12.51;77.36;99853.68;216108;1274;142333;-70
2022/10/16 00:50:45;;;;;;;11.40;8.50;;;;;;;12.42;77.44;99848.95;216048;1274;140269;-70
2022/10/16 00:55:49;;;;;;;15.30;8.90;;;;;;;12.38;77.80;99855.89;215429;1274;141244;-69
2022/10/16 01:00:53;;;;;;;11.90;9.10;;;;;;;12.33;77.79;99859.48;213112;1277;142092;-71
2022/10/16 01:06:19;;;;;;;9.40;7.50;;;;;;;12.27;77.67;99871.36;215915;1274;140852;-71
2022/10/16 01:11:41;;;;;;;10.40;8.40;;;;;;;12.16;78.07;99872.27;216000;1274;140811;-72
2022/10/16 01:17:06;;;;;;;8.70;6.50;;;;;;;12.05;78.21;99872.34;216017;1274;140729;-72
2022/10/16 01:22:11;;;;;;;9.00;7.50;;;;;;;12.01;78.45;99870.34;215787;1274;141046;-71
2022/10/16 01:27:26;;;;;;;10.20;6.80;;;;;;;12.00;78.55;99864.11;215170;1276;140631;-70
2022/10/16 01:32:45;;;;;;;10.20;7.80;;;;;;;11.94;78.81;99862.94;215736;1275;140394;-72
2022/10/16 01:38:18;;;;;;;10.00;7.90;;;;;;;11.87;78.99;99867.15;215951;1274;141213;-72
2022/10/16 01:43:29;;;;;;;17.60;7.90;;;;;;;11.79;79.06;99872.55;216013;1274;141251;-73
2022/10/16 01:48:35;;;;;;;12.60;8.80;;;;;;;11.75;79.34;99875.95;215774;1274;140953;-73
2022/10/16 01:53:42;;;;;;;20.90;9.40;;;;;;;11.72;79.63;99874.96;216102;1274;140394;-73
2022/10/16 01:58:57;;;;;;;9.30;8.00;;;;;;;11.73;79.53;99884.86;215882;1274;140416;-73
2022/10/16 02:04:11;;;;;;;11.00;8.50;;;;;;;11.71;79.52;99884.61;215735;1276;140755;-74
2022/10/16 02:09:16;;;;;;;14.90;8.90;;;;;;;11.70;79.76;99887.01;215492;1274;141931;-73
2022/10/16 02:14:24;;;;;;;11.50;8.90;;;;;;;11.74;80.07;99886.02;215018;1274;141708;-73
2022/10/16 02:19:29;;;;;;;12.20;8.30;;;;;;;11.74;80.06;99891.13;215870;1274;139757;-72
2022/10/16 02:24:51;;;;;;;11.60;8.60;;;;;;;11.73;80.37;99903.62;215697;1275;140974;-70
2022/10/16 02:30:07;;;;;;;10.30;8.70;;;;;;;11.77;80.58;99905.91;215461;1276;140625;-71
2022/10/16 02:35:13;;;;;;;11.90;8.20;;;;;;;11.86;81.14;99914.20;215857;1273;140485;-71
2022/10/16 02:40:18;;;;;;;11.90;7.80;;;;;;;11.96;80.97;99918.16;215318;1274;141062;-71
2022/10/16 02:45:29;;;;;;;10.30;8.40;;;;;;;12.04;81.12;99912.08;215692;1274;140313;-71
2022/10/16 02:50:33;;;;;;;9.30;8.30;;;;;;;12.09;81.11;99903.03;216036;1274;140971;-72
2022/10/16 02:55:38;;;;;;;12.70;9.30;;;;;;;12.16;81.14;99900.85;216081;1274;141381;-71
2022/10/16 03:00:42;;;;;;;12.30;8.60;;;;;;;12.20;81.24;99911.52;215543;1274;140628;-70
2022/10/16 03:05:46;;;;;;;13.50;9.00;;;;;;;12.27;81.49;99916.38;216116;1274;142524;-70
2022/10/16 03:10:51;;;;;;;13.20;10.20;;;;;;;12.32;81.35;99918.45;215746;1274;141992;-73
2022/10/16 03:15:57;;;;;;;11.20;6.90;;;;;;;12.39;81.39;99918.51;214678;1274;142407;-71
2022/10/16 03:21:00;;;;;;;10.90;7.60;;;;;;;12.45;81.48;99919.80;215821;1274;141198;-71
2022/10/16 03:26:05;;;;;;;12.90;9.60;;;;;;;12.51;81.51;99924.02;215601;1274;142134;-71
2022/10/16 03:31:09;;;;;;;13.80;10.10;;;;;;;12.59;81.59;99926.91;215805;1274;142458;-71
2022/10/16 03:36:14;;;;;;;11.30;9.80;;;;;;;12.63;81.44;99914.41;213458;1276;141031;-70
2022/10/16 03:41:19;;;;;;;14.70;10.00;;;;;;;12.64;81.35;99923.40;216125;1272;141116;-71
2022/10/16 03:46:24;;;;;;;12.50;10.00;;;;;;;12.64;81.46;99922.70;215978;1274;140865;-71
2022/10/16 03:51:28;;;;;;;15.50;9.90;;;;;;;12.68;81.39;99924.75;216053;1274;140293;-71
2022/10/16 03:56:32;;;;;;;13.90;10.90;;;;;;;12.69;81.26;99918.04;216070;1274;140490;-71
2022/10/16 04:01:37;;;;;;;12.00;9.80;;;;;;;12.72;81.41;99922.09;215750;1276;141750;-71
2022/10/16 04:06:42;;;;;;;17.50;12.20;;;;;;;12.78;81.49;99927.64;215686;1275;139798;-71
2022/10/16 04:11:46;;;;;;;14.80;9.30;;;;;;;12.77;81.42;99920.52;215872;1274;141317;-71
2022/10/16 04:16:50;;;;;;;15.00;10.80;;;;;;;12.77;81.40;99919.39;215822;1274;140958;-70
2022/10/16 04:21:54;;;;;;;17.30;9.10;;;;;;;12.82;81.29;99931.45;215847;1274;140743;-71
2022/10/16 04:27:02;;;;;;;12.70;9.70;;;;;;;12.87;81.44;99935.83;215826;1274;141916;-71
2022/10/16 04:32:08;;;;;;;11.80;9.70;;;;;;;12.89;81.39;99943.36;213448;1274;140165;-71
2022/10/16 04:37:13;;;;;;;13.10;9.60;;;;;;;12.86;81.34;99950.06;215208;1274;140821;-70
2022/10/16 04:42:17;;;;;;;13.60;9.60;;;;;;;12.80;81.47;99950.96;215935;1274;139970;-71
2022/10/16 04:47:22;;;;;;;14.00;10.10;;;;;;;12.81;81.49;99958.52;215511;1274;140478;-71
2022/10/16 04:52:28;;;;;;;16.20;10.00;;;;;;;12.86;81.43;99952.64;214304;1274;140881;-72
2022/10/16 04:57:33;;;;;;;15.40;10.80;;;;;;;12.87;81.75;99952.86;215305;1273;141022;-71
2022/10/16 05:02:38;;;;;;;15.40;10.70;;;;;;;12.92;81.61;99952.34;214624;1272;141556;-72
2022/10/16 05:07:42;;;;;;;17.70;12.70;;;;;;;12.95;81.49;99941.75;216135;1274;142098;-72
2022/10/16 05:12:47;;;;;;;20.70;12.90;;;;;;;12.97;81.50;99946.65;215508;1274;141386;-71
2022/10/16 05:17:55;;;;;;;12.30;8.10;;;;;;;13.03;81.48;99961.57;215009;1274;140852;-70
2022/10/16 05:23:00;;;;;;;13.30;10.70;;;;;;;13.03;81.28;99959.59;216215;1274;140678;-72
2022/10/16 05:28:05;;;;;;;13.10;10.20;;;;;;;13.00;81.48;99962.10;216082;1274;140815;-71
2022/10/16 05:33:09;;;;;;;20.50;12.00;;;;;;;12.98;81.24;99960.21;215997;1274;140303;-72
2022/10/16 05:38:14;;;;;;;15.00;11.30;;;;;;;13.03;81.49;99967.79;215974;1274;141792;-71
2022/10/16 05:43:19;;;;;;;16.40;9.40;;;;;;;13.06;81.44;99969.27;215968;1274;140846;-72
2022/10/16 05:48:25;;;;;;;15.40;10.80;;;;;;;13.10;81.50;99969.13;215245;1274;787558;-72
2022/10/16 05:53:32;;;;;;;14.00;11.40;;;;;;;13.15;81.49;99984.03;216047;1274;143875;-72
2022/10/16 05:58:37;;;;;;;;;;;;;;;13.18;81.55;99986.48;216059;1274;141923;-72
2022/10/16 06:03:43;;;;;;;12.30;10.20;;;;;;;13.15;81.33;99990.86;216704;1274;128058;-74
2022/10/16 06:08:48;;;;;;;13.80;10.60;;;;;;;13.21;81.30;99997.56;215999;1274;141396;-72
2022/10/16 06:13:56;;;;;;;13.10;10.30;;;;;;;13.42;81.73;100003.49;215784;1274;142483;-76
2022/10/16 06:19:01;;;;;;;14.90;9.20;;;;;;;13.66;81.60;100015.34;215811;1273;140887;-67
2022/10/16 06:24:05;;;;;;;16.70;11.70;;;;;;;13.90;81.17;100023.63;215896;1274;141301;-72
2022/10/16 06:29:09;;;;;;;15.30;9.50;;;;;;;14.25;81.28;100031.37;215956;1274;141112;-70
2022/10/16 06:34:14;;;;;;;11.80;8.60;;;;;;;14.59;80.85;100042.55;215919;1274;141089;-71
2022/10/16 06:39:19;;;;;;;12.50;10.60;;;;;;;14.86;80.52;100048.70;215915;1273;141559;-70
2022/10/16 06:44:24;;;;;;;18.60;11.50;;;;;;;15.06;80.05;100051.76;216007;1274;141828;-71
2022/10/16 06:49:28;;;;;;;11.30;9.70;;;;;;;15.09;79.47;100048.20;214995;1274;143491;-71
2022/10/16 06:54:32;;;;;;;12.50;10.70;;;;;;;15.15;79.05;100056.20;215917;1272;142209;-71
2022/10/16 06:59:44;;;;;;;11.70;10.00;;;;;;;15.09;78.89;100058.72;216189;1274;140397;-72
2022/10/16 07:04:49;;;;;;;13.90;11.40;;;;;;;15.02;78.56;100063.05;216024;1274;141113;-72
2022/10/16 07:09:53;;;;;;;14.00;11.20;;;;;;;15.44;79.18;100053.39;215941;1273;141024;-69
2022/10/16 07:14:58;;;;;;;13.70;10.00;;;;;;;16.59;79.33;100046.95;215080;1274;141560;-72
2022/10/16 07:20:03;;;;;;;19.30;13.50;;;;;;;17.35;78.06;100042.27;216034;1273;140658;-72
2022/10/16 07:25:09;;;;;;;12.50;11.20;;;;;;;17.76;76.77;100037.88;215906;1273;140502;-71
2022/10/16 07:30:14;;;;;;;15.40;13.10;;;;;;;18.13;75.74;100039.47;215170;1273;143040;-71
2022/10/16 07:35:23;;;;;;;14.00;11.20;;;;;;;18.11;74.72;100046.50;215902;1274;141515;-71
2022/10/16 07:40:27;;;;;;;13.00;10.50;;;;;;;18.02;74.41;100058.10;216022;1274;141388;-71
2022/10/16 07:45:31;;;;;;;17.60;12.90;;;;;;;17.97;73.63;100069.81;215937;1274;141180;-70
2022/10/16 07:50:36;;;;;;;13.80;12.40;;;;;;;17.74;73.61;100080.92;215818;1274;140418;-70
2022/10/16 07:55:41;;;;;;;18.40;11.80;;;;;;;17.89;73.87;100081.81;215757;1274;141174;-70
2022/10/16 08:00:46;;;;;;;15.10;12.40;;;;;;;18.13;73.72;100087.48;215652;1274;141690;-70
2022/10/16 08:05:50;;;;;;;14.80;12.10;;;;;;;18.31;73.62;100090.49;215964;1274;141299;-70
2022/10/16 08:10:54;;;;;;;12.60;9.50;;;;;;;18.59;73.21;100100.91;215706;1274;142815;-71
2022/10/16 08:15:57;;;;;;;12.40;10.50;;;;;;;18.72;72.37;100104.20;216064;1274;141103;-68
2022/10/16 08:21:01;;;;;;;13.60;11.70;;;;;;;18.58;71.89;100103.73;216047;1274;142089;-69
2022/10/16 08:26:07;;;;;;;17.30;12.50;;;;;;;18.57;72.14;100117.48;215872;1274;151751;-70
2022/10/16 08:31:12;;;;;;;;;;;;;;;18.52;71.83;100128.95;216036;1274;140113;-69
2022/10/16 08:36:18;;;;;;;13.00;9.90;;;;;;;18.28;71.60;100129.59;216803;1273;126914;-69
2022/10/16 08:41:34;;;;;;;13.20;11.70;;;;;;;17.90;71.13;100125.05;216136;1272;142133;-69
2022/10/16 08:46:48;;;;;;;15.40;10.90;;;;;;;17.67;71.67;100123.96;215632;1274;141911;-69
2022/10/16 08:51:53;;;;;;;12.20;10.00;;;;;;;17.56;71.97;100131.71;212946;1274;142578;-69
2022/10/16 08:57:09;;;;;;;17.10;12.20;;;;;;;17.63;72.14;100129.24;215753;1274;141348;-69
2022/10/16 09:02:25;;;;;;;;;;;;;;;17.62;71.92;100115.65;216007;1274;141163;-69
2022/10/16 09:07:38;;;;;;;14.90;12.50;;;;;;;17.90;72.40;100113.84;214901;1275;127936;-69
2022/10/16 09:13:28;;;;;;;14.40;12.00;;;;;;;18.25;72.45;100109.48;213524;1277;151610;-69
2022/10/16 09:19:09;;;;;;;13.70;12.20;;;;;;;18.29;71.69;100102.02;215445;1272;140766;-70
2022/10/16 09:24:19;;;;;;;18.20;13.60;;;;;;;18.34;71.48;100110.99;214091;1273;141227;-69
2022/10/16 09:29:28;;;;;;;13.50;12.10;;;;;;;18.43;71.50;100108.77;215976;1274;140051;-70
2022/10/16 09:34:39;;;;;;;16.50;10.30;;;;;;;18.72;71.84;100114.60;215989;1274;140219;-71
2022/10/16 09:39:46;;;;;;;12.30;11.10;;;;;;;19.17;71.76;100120.52;216022;1273;141342;-70
2022/10/16 09:44:51;;;;;;;10.80;9.70;;;;;;;19.42;71.02;100128.54;215904;1274;140902;-71
2022/10/16 09:50:04;;;;;;;11.90;10.70;;;;;;;19.47;70.44;100137.80;216067;1274;141132;-71
2022/10/16 09:55:18;;;;;;;12.90;10.30;;;;;;;19.53;69.82;100136.00;215986;1273;140712;-72
2022/10/16 10:00:24;;;;;;;15.50;12.00;;;;;;;19.66;69.84;100134.41;215759;1274;140673;-70
2022/10/16 10:05:29;;;;;;;11.30;10.10;;;;;;;19.68;69.38;100127.78;215653;1275;139847;-72
2022/10/16 10:10:37;;;;;;;15.30;10.80;;;;;;;19.61;68.89;100123.73;215649;1274;141558;-68
2022/10/16 10:15:42;;;;;;;13.80;11.00;;;;;;;19.54;68.82;100117.98;215842;1274;141939;-69
2022/10/16 10:20:57;;;;;;;10.50;9.50;;;;;;;19.71;69.12;100126.35;215792;1274;141267;-70
2022/10/16 10:26:11;;;;;;;12.20;10.60;;;;;;;20.00;68.91;100130.65;215883;1274;141845;-70
2022/10/16 10:31:39;;;;;;;9.40;8.40;;;;;;;20.01;68.14;100130.98;215949;1273;142533;-70
2022/10/16 10:36:53;;;;;;;14.30;11.50;;;;;;;20.03;68.20;100135.27;215683;1273;141121;-70
2022/10/16 10:42:16;;;;;;;15.20;11.90;;;;;;;20.18;68.31;100138.73;215893;1273;142094;-69
2022/10/16 10:48:13;;;;;;;11.00;9.90;;;;;;;20.23;67.73;100135.48;215989;1274;141083;-70
2022/10/16 10:53:42;;;;;;;9.50;8.50;;;;;;;20.08;67.66;100143.35;215734;1274;142139;-70
2022/10/16 10:58:59;;;;;;;10.30;9.20;;;;;;;20.12;67.71;100135.08;215918;1273;140955;-71
2022/10/16 11:04:16;;;;;;;;;;;;;;;20.33;67.85;100130.23;216042;1274;140987;-70
2022/10/16 11:09:33;;;;;;;9.40;8.50;;;;;;;20.59;67.51;100124.39;213833;1274;127178;-70
2022/10/16 11:14:49;;;;;;;9.30;8.40;;;;;;;20.81;67.50;100121.15;215854;1273;139675;-71
2022/10/16 11:20:17;;;;;;;9.70;8.60;;;;;;;20.97;67.20;100118.92;216002;1273;140169;-72
2022/10/16 11:25:32;;;;;;;8.00;7.20;;;;;;;21.21;66.95;100113.45;215907;1274;139437;-72
2022/10/16 11:30:54;;;;;;;12.00;9.70;;;;;;;21.43;66.24;100111.46;214096;1277;140280;-70
2022/10/16 11:36:11;;;;;;;10.80;8.70;;;;;;;21.37;65.87;100116.03;214114;1272;140521;-69
2022/10/16 11:41:32;;;;;;;10.20;9.30;;;;;;;21.12;65.51;100114.73;213626;1273;140451;-69
2022/10/16 11:46:40;;;;;;;10.60;9.50;;;;;;;20.84;65.84;100123.16;216124;1273;139692;-71
2022/10/16 11:52:25;;;;;;;7.90;7.10;;;;;;;20.81;66.07;100129.23;215993;1274;140411;-68
2022/10/16 11:57:39;;;;;;;11.50;8.70;;;;;;;20.72;65.80;100129.91;214316;1274;140035;-69
2022/10/16 12:02:57;;;;;;;11.20;8.80;;;;;;;20.58;65.96;100136.20;216046;1273;139477;-69
2022/10/16 12:08:11;;;;;;;10.40;7.40;;;;;;;20.29;65.89;100143.98;216186;1273;139511;-70
2022/10/16 12:13:31;;;;;;;10.40;8.20;;;;;;;20.08;66.35;100150.60;215933;1274;139373;-70
2022/10/16 12:18:34;;;;;;;10.80;7.40;;;;;;;20.10;66.48;100146.90;215818;1274;140925;-68
2022/10/16 12:23:51;;;;;;;9.10;6.30;;;;;;;20.17;66.58;100142.96;215914;1273;140199;-67
2022/10/16 12:28:56;;;;;;;6.40;5.80;;;;;;;20.28;66.67;100132.92;215982;1272;140852;-70
2022/10/16 12:34:03;;;;;;;6.80;6.20;;;;;;;20.47;66.64;100129.09;216000;1273;141037;-69
2022/10/16 12:39:22;;;;;;;6.70;5.60;;;;;;;20.55;66.31;100137.77;215938;1273;141375;-71
2022/10/16 12:44:32;;;;;;;7.10;6.50;;;;;;;20.51;66.02;100145.83;215152;1272;140416;-68
2022/10/16 12:49:48;;;;;;;8.30;7.50;;;;;;;20.33;65.95;100142.09;215907;1272;140331;-70
2022/10/16 12:55:00;;;;;;;11.90;7.50;;;;;;;20.23;66.34;100149.92;215834;1272;140149;-71
2022/10/16 13:00:32;;;;;;;7.50;6.40;;;;;;;20.21;66.35;100155.52;215747;1272;139843;-73
2022/10/16 13:06:03;;;;;;;8.30;7.50;;;;;;;20.14;66.12;100150.64;214915;1273;139934;-75
2022/10/16 13:11:44;;;;;;;10.00;6.00;;;;;;;20.19;66.42;100144.50;214152;1274;140882;-71
2022/10/16 13:17:24;;;;;;;10.00;7.20;;;;;;;20.12;66.27;100151.53;214980;1274;142639;-78
2022/10/16 13:22:48;;;;;;;11.40;6.80;;;;;;;20.06;66.27;100155.77;215576;1274;141552;-74
2022/10/16 13:28:05;;;;;;;8.70;7.70;;;;;;;19.99;66.43;100166.54;213263;1274;162465;-73
2022/10/16 13:33:20;;;;;;;8.70;6.90;;;;;;;19.95;66.52;100163.45;213671;1271;140958;-73
2022/10/16 13:38:30;;;;;;;8.40;7.20;;;;;;;19.95;66.60;100161.38;215809;1274;139990;-73
2022/10/16 13:43:37;;;;;;;10.30;7.20;;;;;;;19.89;66.48;100174.16;215691;1273;140146;-74
2022/10/16 13:48:42;;;;;;;10.60;7.80;;;;;;;19.85;66.48;100181.63;215680;1273;140955;-75
2022/10/16 13:53:54;;;;;;;9.20;8.20;;;;;;;19.78;66.49;100178.92;215762;1274;140510;-75
2022/10/16 13:59:21;;;;;;;8.60;7.60;;;;;;;19.72;66.79;100183.63;216086;1274;140480;-74
2022/10/16 14:04:29;;;;;;;8.50;7.40;;;;;;;19.69;66.95;100193.06;215875;1274;141115;-75
2022/10/16 14:09:36;;;;;;;7.70;7.00;;;;;;;19.66;67.05;100205.10;215776;1274;139969;-75
2022/10/16 14:14:43;;;;;;;8.60;7.10;;;;;;;19.70;67.11;100216.05;215800;1273;142499;-77
2022/10/16 14:19:52;;;;;;;9.70;8.70;;;;;;;19.71;67.14;100213.29;215948;1274;139948;-73
2022/10/16 14:25:22;;;;;;;8.00;7.20;;;;;;;19.65;66.94;100213.42;215780;1274;141112;-73
2022/10/16 14:30:27;;;;;;;9.20;8.30;;;;;;;19.61;67.27;100219.79;215807;1274;141411;-74
2022/10/16 14:35:37;;;;;;;7.50;6.30;;;;;;;19.61;67.49;100215.14;215909;1274;140481;-73
2022/10/16 14:40:48;;;;;;;7.60;6.90;;;;;;;19.52;67.37;100229.77;215684;1275;161563;-73
2022/10/16 14:45:56;;;;;;;8.90;7.60;;;;;;;19.45;67.52;100235.04;215949;1274;141522;-74
2022/10/16 14:51:01;;;;;;;8.20;7.50;;;;;;;19.31;67.65;100238.74;215818;1273;141253;-72
2022/10/16 14:56:20;;;;;;;10.30;7.80;;;;;;;19.19;67.86;100234.99;216020;1274;139897;-74
2022/10/16 15:01:25;;;;;;;10.70;8.50;;;;;;;19.03;67.98;100237.92;215666;1274;140862;-74
2022/10/16 15:06:29;;;;;;;13.80;8.30;;;;;;;18.96;68.37;100236.35;215722;1274;140328;-72
2022/10/16 15:11:34;;;;;;;12.20;9.00;;;;;;;18.90;68.38;100238.17;215943;1274;142046;-70
2022/10/16 15:16:38;;;;;;;10.50;8.10;;;;;;;18.76;68.64;100241.52;215575;1275;141120;-70
2022/10/16 15:21:43;;;;;;;9.30;7.40;;;;;;;18.60;68.73;100246.16;213695;1272;140156;-70
2022/10/16 15:26:49;;;;;;;18.80;8.30;;;;;;;18.51;69.13;100245.36;215065;1274;141502;-71
2022/10/16 15:31:52;;;;;;;10.50;8.20;;;;;;;18.38;69.29;100240.64;215895;1274;144110;-71
2022/10/16 15:36:57;;;;;;;10.00;9.00;;;;;;;18.27;69.72;100245.48;215839;1274;140299;-73
2022/10/16 15:42:01;;;;;;;11.50;8.20;;;;;;;18.19;69.76;100249.32;214469;1274;140898;-72
2022/10/16 15:47:05;;;;;;;8.20;7.40;;;;;;;18.11;69.90;100258.06;215939;1275;141216;-72
2022/10/16 15:52:09;;;;;;;9.60;8.20;;;;;;;17.96;70.09;100260.23;215882;1274;140703;-72
2022/10/16 15:57:13;;;;;;;8.30;7.40;;;;;;;17.83;70.21;100260.13;215866;1273;141075;-74
2022/10/16 16:02:17;;;;;;;14.50;8.00;;;;;;;17.77;70.54;100262.33;215873;1274;141357;-74
2022/10/16 16:07:21;;;;;;;11.50;8.40;;;;;;;17.74;70.58;100271.61;215759;1274;141068;-73
2022/10/16 16:12:25;;;;;;;9.20;8.20;;;;;;;17.60;70.57;100272.66;215760;1274;139469;-72
2022/10/16 16:17:31;;;;;;;13.30;9.50;;;;;;;17.46;70.81;100283.67;215966;1274;139401;-73
2022/10/16 16:22:35;;;;;;;11.90;8.40;;;;;;;17.36;71.02;100291.32;215703;1274;141283;-73
2022/10/16 16:27:39;;;;;;;11.50;9.10;;;;;;;17.28;71.30;100300.83;215743;1275;140094;-72
2022/10/16 16:32:43;;;;;;;13.60;9.40;;;;;;;17.19;71.52;100302.52;215930;1274;140894;-74
2022/10/16 16:37:47;;;;;;;10.50;9.40;;;;;;;17.13;71.64;100311.39;215859;1274;139861;-75
2022/10/16 16:42:52;;;;;;;12.10;10.50;;;;;;;17.10;71.74;100323.88;215931;1274;141473;-75
2022/10/16 16:47:57;;;;;;;11.60;9.60;;;;;;;17.06;71.92;100336.80;215930;1274;139979;-77
2022/10/16 16:53:03;;;;;;;17.60;11.00;;;;;;;17.01;72.04;100346.27;215944;1274;143198;-73
2022/10/16 16:58:08;;;;;;;13.60;10.20;;;;;;;16.91;72.11;100344.09;214839;1274;142306;-67
2022/10/16 17:03:16;;;;;;;12.70;9.60;;;;;;;16.84;72.33;100352.18;215763;1274;141351;-71
2022/10/16 17:08:20;;;;;;;16.90;11.20;;;;;;;16.78;72.65;100360.25;215905;1274;141772;-73
2022/10/16 17:13:27;;;;;;;15.10;11.90;;;;;;;16.74;72.86;100372.88;215557;1274;140638;-72
2022/10/16 17:18:31;;;;;;;;;;;;;;;16.78;73.13;100384.38;215382;1274;140917;-71
2022/10/16 17:23:38;;;;;;;10.90;8.90;;;;;;;16.73;73.04;100382.34;214320;1274;128069;-71
2022/10/16 17:28:50;;;;;;;10.40;9.30;;;;;;;16.72;73.44;100385.73;215802;1274;140131;-71
2022/10/16 17:33:56;;;;;;;19.80;10.50;;;;;;;16.71;73.50;100382.98;215642;1276;139748;-72
2022/10/16 17:39:08;;;;;;;19.60;12.40;;;;;;;16.66;73.51;100381.27;215603;1274;140782;-71
2022/10/16 17:44:18;;;;;;;27.20;14.10;;;;;;;16.64;73.64;100393.62;215195;1274;140383;-71
2022/10/16 17:49:22;;;;;;;17.80;12.20;;;;;;;16.59;73.65;100403.30;215261;1274;378930;-70
2022/10/16 17:54:27;;;;;;;14.60;10.50;;;;;;;16.54;73.69;100408.44;215644;1274;141985;-72
2022/10/16 17:59:32;;;;;;;16.10;12.80;;;;;;;16.49;73.85;100411.38;215898;1274;140954;-72
2022/10/16 18:04:36;;;;;;;13.60;10.70;;;;;;;16.43;73.73;100422.19;215799;1274;141169;-72
2022/10/16 18:09:41;;;;;;;16.10;11.80;;;;;;;16.32;73.72;100421.34;215674;1274;141600;-72
2022/10/16 18:15:06;;;;;;;22.00;13.70;;;;;;;16.17;73.95;100422.65;215010;1274;161194;-72
2022/10/16 18:20:11;;;;;;;12.90;11.50;;;;;;;16.07;74.21;100431.23;215842;1274;141137;-71
2022/10/16 18:25:17;;;;;;;18.10;13.30;;;;;;;16.06;74.32;100430.08;215751;1274;142142;-72
2022/10/16 18:30:22;;;;;;;19.00;13.10;;;;;;;15.96;74.30;100434.48;215762;1272;141356;-72
2022/10/16 18:35:27;;;;;;;17.20;12.70;;;;;;;15.89;74.52;100443.23;215967;1272;140903;-73
2022/10/16 18:40:34;;;;;;;17.30;12.70;;;;;;;15.80;74.79;100449.61;215720;1274;140550;-71
2022/10/16 18:45:38;;;;;;;;;;;;;;;15.76;75.11;100463.05;215730;1274;140506;-71
2022/10/16 18:50:43;;;;;;;21.70;14.20;;;;;;;15.71;75.18;100471.05;216530;1274;147166;-72
2022/10/16 18:55:52;;;;;;;17.10;12.00;;;;;;;15.70;75.27;100472.20;215921;1274;143231;-72
2022/10/16 19:01:03;;;;;;;19.90;12.50;;;;;;;15.62;75.35;100476.30;215898;1272;141297;-72
2022/10/16 19:06:10;;;;;;;20.20;14.60;;;;;;;15.54;75.42;100485.83;216082;1274;141092;-70
2022/10/16 19:11:20;;;;;;;18.90;12.30;;;;;;;15.51;75.64;100489.25;216047;1273;141324;-71
2022/10/16 19:16:29;;;;;;;18.40;14.70;;;;;;;15.42;75.69;100494.27;216126;1273;140877;-72
2022/10/16 19:21:38;;;;;;;20.90;13.90;;;;;;;15.30;75.94;100490.79;215753;1274;140826;-72
2022/10/16 19:26:43;;;;;;;22.90;15.90;;;;;;;15.21;76.10;100484.53;216047;1274;141980;-72
2022/10/16 19:31:48;;;;;;;26.30;17.40;;;;;;;15.14;76.30;100485.89;215770;1273;140843;-72
2022/10/16 19:36:53;;;;;;;20.50;15.20;;;;;;;15.09;76.50;100493.45;214141;1274;142269;-71
2022/10/16 19:41:58;;;;;;;22.10;16.30;;;;;;;15.06;76.74;100502.41;212660;1274;159943;-71
2022/10/16 19:47:02;;;;;;;23.70;16.90;;;;;;;14.99;76.79;100512.25;216303;1273;141434;-74
2022/10/16 19:52:08;;;;;;;21.30;14.70;;;;;;;14.95;76.91;100524.48;213739;1273;142046;-72
2022/10/16 19:57:13;;;;;;;21.90;17.80;;;;;;;14.95;76.88;100538.08;213477;1274;141474;-73
2022/10/16 20:02:16;;;;;;;26.40;16.90;;;;;;;14.93;77.00;100541.52;214963;1273;141092;-73
2022/10/16 20:07:22;;;;;;;21.70;15.90;;;;;;;14.97;77.26;100553.12;215349;1274;140908;-71
2022/10/16 20:12:27;;;;;;;24.70;16.80;;;;;;;15.01;77.28;100559.23;215850;1274;141281;-71
2022/10/16 20:17:34;;;;;;;17.20;13.10;;;;;;;15.05;77.60;100563.13;215770;1273;140034;-70
2022/10/16 20:22:38;;;;;;;23.10;17.80;;;;;;;14.99;77.40;100564.54;215733;1274;141254;-71
2022/10/16 20:27:42;;;;;;;21.30;15.70;;;;;;;14.93;77.56;100571.11;215857;1273;140929;-70
2022/10/16 20:32:47;;;;;;;23.70;15.70;;;;;;;14.91;77.79;100570.11;215777;1274;140285;-70
2022/10/16 20:37:52;;;;;;;21.30;16.90;;;;;;;14.95;77.97;100573.56;215838;1272;140870;-71
2022/10/16 20:42:57;;;;;;;22.40;15.80;;;;;;;15.04;77.96;100579.65;216058;1274;141188;-71
2022/10/16 20:48:02;;;;;;;22.40;15.80;;;;;;;15.01;77.70;100579.92;215823;1276;141137;-72
2022/10/16 20:53:08;;;;;;;20.30;16.40;;;;;;;14.95;77.65;100583.33;215918;1276;141665;-69
2022/10/16 20:58:12;;;;;;;20.50;15.10;;;;;;;14.87;77.80;100588.39;216015;1273;141478;-71
2022/10/16 21:03:16;;;;;;;30.60;17.60;;;;;;;14.79;77.80;100592.77;215776;1275;141764;-71
2022/10/16 21:08:21;;;;;;;24.30;17.60;;;;;;;14.79;78.08;100599.95;215931;1274;142269;-71
2022/10/16 21:13:27;;;;;;;24.30;16.50;;;;;;;14.80;78.14;100600.52;215996;1274;141435;-72
2022/10/16 21:18:34;;;;;;;21.80;15.70;;;;;;;14.69;77.99;100607.07;216007;1274;140518;-72
2022/10/16 21:23:38;;;;;;;23.90;16.90;;;;;;;14.65;78.24;100613.55;216127;1272;140480;-72
2022/10/16 21:28:42;;;;;;;26.20;14.90;;;;;;;14.63;78.52;100607.46;216050;1273;141458;-71
2022/10/16 21:33:48;;;;;;;20.10;16.30;;;;;;;14.70;78.50;100613.63;215974;1274;141379;-72
2022/10/16 21:38:53;;;;;;;21.50;16.00;;;;;;;14.73;78.37;100614.12;215632;1273;140982;-72
2022/10/16 21:43:59;;;;;;;22.40;14.90;;;;;;;14.68;78.28;100621.31;215239;1274;140272;-72
2022/10/16 21:49:07;;;;;;;20.20;15.20;;;;;;;14.58;78.22;100631.39;215758;1273;141708;-71
2022/10/16 21:54:15;;;;;;;18.80;15.50;;;;;;;14.48;78.22;100637.26;215346;1274;140688;-71
2022/10/16 21:59:19;;;;;;;23.80;16.70;;;;;;;14.43;78.25;100644.88;214874;1274;142910;-74
2022/10/16 22:04:23;;;;;;;21.10;16.10;;;;;;;14.37;78.25;100650.74;213739;1274;141925;-73
2022/10/16 22:09:28;;;;;;;18.30;13.50;;;;;;;14.33;78.37;100660.53;214280;1273;140467;-72
2022/10/16 22:14:32;;;;;;;19.90;15.60;;;;;;;14.27;78.75;100660.02;213449;1274;142233;-72
2022/10/16 22:19:37;;;;;;;21.90;15.60;;;;;;;14.22;78.84;100667.26;215898;1274;139367;-72
2022/10/16 22:24:41;;;;;;;23.00;17.80;;;;;;;14.21;78.92;100666.55;213363;1274;140288;-72
2022/10/16 22:29:50;;;;;;;27.80;16.40;;;;;;;14.25;79.13;100668.10;215521;1274;141371;-71
2022/10/16 22:34:55;;;;;;;24.20;17.00;;;;;;;14.23;79.05;100662.61;215842;1274;140953;-72
2022/10/16 22:40:01;;;;;;;23.10;16.10;;;;;;;14.26;79.29;100672.25;215886;1274;141133;-72
2022/10/16 22:45:05;;;;;;;21.30;17.20;;;;;;;14.26;79.02;100668.96;215892;1274;140402;-71
2022/10/16 22:50:10;;;;;;;23.90;17.20;;;;;;;14.18;79.30;100671.52;215894;1274;140839;-71
2022/10/16 22:55:18;;;;;;;23.70;16.60;;;;;;;14.17;79.52;100687.55;215803;1273;140124;-71
2022/10/16 23:00:23;;;;;;;27.60;18.70;;;;;;;14.22;79.65;100693.00;215789;1274;141410;-72
2022/10/16 23:05:28;;;;;;;17.90;14.20;;;;;;;14.28;79.53;100688.96;215924;1274;140412;-72
2022/10/16 23:10:33;;;;;;;33.10;18.40;;;;;;;14.22;79.34;100696.66;215762;1272;140793;-71